Jaipur, India
Current Conditions -  °F | °C
As of 4:30 AM on Thursday 23 Oct 2014 (Local Time) from VIJP Reporting Station
Smoke Smoke  
Wind Chill: 22°   Ceiling: Unl
Heat Index: 22°   Visibility: 1.2mi
Dew Point: 14°   Wind: 2mph
Humidity: 60%   Direction: NA
Pressure: 29.97"   Gusts: NA
Location:  26.91°N, 75.8°E
Report Text: VIJP 222330Z VRB02KT 2000 FU SCT030 22/14 Q1015 NOSIG
Loading
Personal Weather Stations






























Interactive Weather Map
Tropical Storm Tracking
New forecast layout! Learn more

10-Day Weather Forecast

Advertisements
Track Severe Weather on mobile